Time;durP1;ratioP1;P1;durP2;ratioP2;P2;SDS_P1;SDS_P2;PMS_P1;PMS_P2;Temp;Humidity;BMP_temperature;BMP_pressure;BME280_temperature;BME280_humidity;BME280_pressure;Samples;Min_cycle;Max_cycle;Signal;HPM_P1;HPM_P2
2022/10/05 00:00:48;;;;;;;0.43;0.43;;;;;;;8.62;77.83;100238.19;4219697;33;33815;-74
2022/10/05 00:03:17;;;;;;;0.70;0.70;;;;;;;8.27;80.78;100242.91;4219683;33;35114;-74
2022/10/05 00:05:45;;;;;;;0.73;0.73;;;;;;;8.84;77.17;100247.13;4207767;33;32979;-74
2022/10/05 00:08:23;;;;;;;0.40;0.40;;;;;;;8.81;76.39;100244.47;4207760;33;33605;-74
2022/10/05 00:10:52;;;;;;;0.50;0.50;;;;;;;8.84;76.48;100239.31;4219487;33;33574;-74
2022/10/05 00:13:25;;;;;;;0.40;0.40;;;;;;;8.83;76.31;100240.16;4231828;33;35132;-74
2022/10/05 00:16:18;;;;;;;0.50;0.50;;;;;;;8.86;76.44;100237.59;4220958;33;34456;-74
2022/10/05 00:18:51;;;;;;;0.55;0.55;;;;;;;8.81;76.10;100235.81;4221523;33;33336;-74
2022/10/05 00:21:25;;;;;;;0.98;0.98;;;;;;;8.73;76.54;100228.81;4221491;33;34797;-74
2022/10/05 00:23:55;;;;;;;8.98;1.35;;;;;;;7.87;81.97;100226.78;4221429;33;35922;-74
2022/10/05 00:26:25;;;;;;;0.80;0.80;;;;;;;8.69;78.56;100226.16;4221551;33;33719;-74
2022/10/05 00:28:53;;;;;;;0.40;0.40;;;;;;;8.73;77.16;100220.13;4221464;33;32568;-74
2022/10/05 00:31:30;;;;;;;0.47;0.47;;;;;;;8.47;78.40;100219.84;4221504;33;34642;-74
2022/10/05 00:33:58;;;;;;;0.50;0.50;;;;;;;8.51;78.78;100226.81;4221413;33;35861;-74
2022/10/05 00:36:26;;;;;;;0.50;0.50;;;;;;;8.45;78.95;100229.34;4233990;33;35050;-74
2022/10/05 00:38:54;;;;;;;0.40;0.40;;;;;;;8.08;80.90;100227.13;4234003;33;34248;-74
2022/10/05 00:41:51;;;;;;;0.45;0.45;;;;;;;8.08;79.22;100231.41;4221265;33;33908;-74
2022/10/05 00:44:48;;;;;;;0.55;0.55;;;;;;;7.68;81.63;100231.72;4233902;33;34975;-74
2022/10/05 00:47:39;;;;;;;0.40;0.40;;;;;;;8.38;79.00;100225.75;4227659;33;34960;-74
2022/10/05 00:50:25;;;;;;;0.65;0.65;;;;;;;8.41;76.80;100225.78;4233926;33;33611;-74
2022/10/05 00:53:03;;;;;;;2.90;1.62;;;;;;;8.08;79.22;100234.91;4233973;33;34085;-74
2022/10/05 00:55:36;;;;;;;0.95;0.95;;;;;;;8.30;80.60;100232.59;4209562;33;34250;-74
2022/10/05 00:58:31;;;;;;;0.50;0.50;;;;;;;8.69;77.47;100226.16;4233728;33;34696;-74
2022/10/05 01:01:14;;;;;;;0.50;0.50;;;;;;;8.25;78.43;100229.06;4218386;33;33397;-74
2022/10/05 01:03:48;;;;;;;0.50;0.50;;;;;;;7.97;80.43;100229.53;4221216;33;34419;-74
2022/10/05 01:06:55;;;;;;;0.50;0.50;;;;;;;8.37;80.15;100229.22;4233840;33;35054;-74
2022/10/05 01:09:25;;;;;;;0.50;0.50;;;;;;;8.58;79.12;100227.75;4189786;34;35187;-74
2022/10/05 01:12:13;;;;;;;0.40;0.40;;;;;;;8.31;81.03;100223.94;4190135;34;32552;-74
2022/10/05 01:14:41;;;;;;;0.50;0.50;;;;;;;8.31;80.64;100234.31;4209107;34;34919;-74
2022/10/05 01:17:25;;;;;;;0.50;0.50;;;;;;;8.50;78.31;100236.31;4219682;34;35121;-74
2022/10/05 01:20:05;;;;;;;0.50;0.50;;;;;;;8.77;76.81;100240.09;4207255;34;35051;-74
2022/10/05 01:23:11;;;;;;;0.50;0.50;;;;;;;8.46;78.24;100246.66;4220115;34;33394;-74
2022/10/05 01:25:51;;;;;;;0.45;0.45;;;;;;;8.66;77.07;100259.88;4219369;34;33940;-74
2022/10/05 01:28:52;;;;;;;0.45;0.45;;;;;;;8.62;76.62;100258.09;4219675;34;35015;-74
2022/10/05 01:32:07;;;;;;;0.50;0.50;;;;;;;7.81;80.41;100257.84;4210199;34;34519;-74
2022/10/05 01:34:39;;;;;;;0.82;0.82;;;;;;;7.59;83.34;100258.38;4217417;34;33331;-74
2022/10/05 01:37:21;;;;;;;0.70;0.70;;;;;;;7.60;83.13;100261.81;4207199;34;34080;-74
2022/10/05 01:40:04;;;;;;;0.40;0.40;;;;;;;8.31;80.75;100266.34;4207107;34;35048;-74
2022/10/05 01:42:41;;;;;;;0.40;0.40;;;;;;;8.32;79.16;100265.47;4219532;34;34543;-74
2022/10/05 01:45:22;;;;;;;0.55;0.55;;;;;;;8.72;76.94;100263.41;4219627;34;34426;-74
2022/10/05 01:47:58;;;;;;;0.55;0.55;;;;;;;8.63;75.49;100258.13;4207231;34;34075;-74
2022/10/05 01:50:25;;;;;;;0.70;0.70;;;;;;;8.54;76.53;100266.66;4207117;34;35234;-74
2022/10/05 01:53:04;;;;;;;0.50;0.50;;;;;;;8.78;75.46;100257.41;4219549;34;34544;-74
2022/10/05 01:55:43;;;;;;;0.50;0.50;;;;;;;8.85;73.77;100247.97;4219740;34;34367;-74
2022/10/05 01:58:18;;;;;;;0.50;0.50;;;;;;;8.54;74.64;100264.06;4219540;34;33858;-74
2022/10/05 02:00:57;;;;;;;0.70;0.70;;;;;;;8.61;74.31;100258.94;4207083;34;35934;-74
2022/10/05 02:03:38;;;;;;;0.60;0.60;;;;;;;8.44;74.49;100257.03;4206983;34;34558;-74
2022/10/05 02:06:14;;;;;;;0.50;0.50;;;;;;;8.20;76.63;100264.44;4206922;34;33341;-74
2022/10/05 02:08:46;;;;;;;0.85;0.85;;;;;;;8.35;76.18;100267.25;4211514;33;34020;-74
2022/10/05 02:11:17;;;;;;;0.70;0.70;;;;;;;8.31;76.03;100273.22;4233674;33;34639;-74
2022/10/05 02:13:50;;;;;;;0.60;0.60;;;;;;;8.37;76.20;100270.75;4221043;33;34751;-74
2022/10/05 02:16:18;;;;;;;0.50;0.50;;;;;;;8.42;75.58;100278.56;4233363;33;33563;-74
2022/10/05 02:18:56;;;;;;;0.50;0.50;;;;;;;8.31;75.85;100271.53;4233414;33;34064;-74
2022/10/05 02:21:25;;;;;;;0.75;0.75;;;;;;;7.95;77.92;100277.91;4220811;33;35004;-74
2022/10/05 02:23:56;;;;;;;0.50;0.50;;;;;;;8.05;77.92;100273.75;4220656;33;35232;-74
2022/10/05 02:26:25;;;;;;;0.50;0.50;;;;;;;8.08;78.01;100270.31;4220842;33;33412;-74
2022/10/05 02:28:57;;;;;;;0.50;0.50;;;;;;;7.71;79.38;100282.72;4220876;33;34056;-74
2022/10/05 02:31:39;;;;;;;0.73;0.70;;;;;;;8.16;77.54;100273.91;4233523;33;35713;-74
2022/10/05 02:34:29;;;;;;;0.70;0.70;;;;;;;8.17;77.30;100270.47;4220643;33;34568;-74
2022/10/05 02:37:19;;;;;;;0.50;0.50;;;;;;;8.12;77.28;100274.72;4232127;33;34589;-74
2022/10/05 02:40:13;;;;;;;0.50;0.50;;;;;;;8.12;77.71;100282.50;4220853;33;34175;-74
2022/10/05 02:42:56;;;;;;;0.65;0.65;;;;;;;7.82;79.06;100276.00;4233170;33;35112;-74
2022/10/05 02:45:42;;;;;;;0.52;0.52;;;;;;;8.21;78.15;100271.37;4233390;33;34647;-74
2022/10/05 02:48:22;;;;;;;0.50;0.50;;;;;;;8.01;78.26;100271.94;4233118;33;33483;-74
2022/10/05 02:51:02;;;;;;;0.60;0.60;;;;;;;8.24;77.01;100281.78;4232991;33;33910;-74
2022/10/05 02:53:39;;;;;;;0.50;0.50;;;;;;;8.25;77.06;100280.94;4232923;33;35215;-74
2022/10/05 02:56:18;;;;;;;0.50;0.50;;;;;;;8.19;76.89;100271.37;4232968;33;35206;-74
2022/10/05 02:59:05;;;;;;;0.55;0.55;;;;;;;8.32;75.99;100277.59;4220528;33;33516;-74
2022/10/05 03:01:39;;;;;;;0.60;0.60;;;;;;;8.25;75.73;100273.16;4233119;33;34738;-74
2022/10/05 03:04:33;;;;;;;0.55;0.55;;;;;;;8.05;77.77;100278.94;4220400;33;34648;-74
2022/10/05 03:07:13;;;;;;;0.50;0.50;;;;;;;8.15;76.50;100269.56;4233086;33;35231;-74
2022/10/05 03:09:59;;;;;;;0.50;0.50;;;;;;;7.33;81.16;100275.19;4220374;33;33473;-74
2022/10/05 03:12:47;;;;;;;0.57;0.57;;;;;;;7.73;78.72;100266.38;4233078;33;33877;-74
2022/10/05 03:15:43;;;;;;;0.50;0.50;;;;;;;7.67;79.89;100263.66;4220741;33;35747;-74
2022/10/05 03:18:32;;;;;;;0.90;0.90;;;;;;;7.96;77.70;100260.66;4220166;33;34529;-74
2022/10/05 03:21:13;;;;;;;0.50;0.50;;;;;;;8.05;77.58;100257.34;4233101;33;33535;-74
2022/10/05 03:23:48;;;;;;;0.65;0.65;;;;;;;7.98;77.65;100252.03;4232751;33;34176;-74
2022/10/05 03:26:19;;;;;;;0.50;0.50;;;;;;;8.01;77.58;100243.41;4232550;33;34811;-74
2022/10/05 03:28:59;;;;;;;0.60;0.60;;;;;;;8.06;77.31;100244.34;4232761;33;34590;-74
2022/10/05 03:31:52;;;;;;;0.40;0.40;;;;;;;8.06;77.74;100248.69;4220332;33;33446;-74
2022/10/05 03:34:36;;;;;;;0.60;0.60;;;;;;;7.99;77.84;100247.72;4219945;33;34016;-74
2022/10/05 03:37:14;;;;;;;1.08;1.08;;;;;;;7.92;77.81;100251.06;4219755;33;35300;-74
2022/10/05 03:39:46;;;;;;;0.50;0.50;;;;;;;7.90;77.63;100255.38;4208925;33;35027;-74
2022/10/05 03:42:33;;;;;;;0.73;0.73;;;;;;;7.89;76.87;100261.44;4232412;33;34451;-74
2022/10/05 03:45:17;;;;;;;0.73;0.73;;;;;;;7.65;77.72;100261.91;4219855;33;33941;-74
2022/10/05 03:47:56;;;;;;;0.57;0.57;;;;;;;7.14;83.71;100268.81;4231379;33;34249;-74
2022/10/05 03:50:32;;;;;;;0.60;0.60;;;;;;;7.62;82.80;100267.03;4234582;33;34325;-74
2022/10/05 03:53:04;;;;;;;1.95;0.70;;;;;;;8.04;79.13;100272.00;4221843;33;33523;-74
2022/10/05 03:56:17;;;;;;;0.60;0.60;;;;;;;8.08;78.11;100273.81;4221948;33;34707;-74
2022/10/05 03:58:53;;;;;;;0.60;0.60;;;;;;;8.06;78.14;100270.28;4227065;33;34962;-74
2022/10/05 04:01:24;;;;;;;0.60;0.60;;;;;;;8.05;77.08;100263.38;4221696;33;34310;-74
2022/10/05 04:03:58;;;;;;;0.50;0.50;;;;;;;7.51;79.00;100280.69;4221678;33;33559;-74
2022/10/05 04:06:33;;;;;;;0.50;0.50;;;;;;;7.51;79.29;100283.28;4221556;33;34802;-74
2022/10/05 04:09:33;;;;;;;1.90;1.75;;;;;;;7.71;79.44;100278.44;4221694;33;34926;-74
2022/10/05 04:12:36;;;;;;;0.50;0.50;;;;;;;7.95;77.52;100282.25;4219008;33;35167;-74
2022/10/05 04:15:13;;;;;;;0.50;0.50;;;;;;;7.87;77.82;100278.66;4221550;33;33585;-74
2022/10/05 04:17:49;;;;;;;0.70;0.70;;;;;;;7.97;77.11;100275.34;4211195;33;33832;-74
2022/10/05 04:20:42;;;;;;;0.47;0.47;;;;;;;7.68;78.84;100277.53;4221609;33;36007;-74
2022/10/05 04:23:13;;;;;;;0.60;0.60;;;;;;;8.01;77.05;100278.88;4234069;33;34454;-74
2022/10/05 04:25:49;;;;;;;0.55;0.55;;;;;;;8.06;76.45;100285.00;4221516;33;33798;-74
2022/10/05 04:29:11;;;;;;;4.20;2.58;;;;;;;8.01;76.53;100290.09;4210093;33;33345;-74
2022/10/05 04:32:14;;;;;;;0.50;0.50;;;;;;;7.86;76.49;100287.31;4204266;34;34870;-74
2022/10/05 04:34:55;;;;;;;0.50;0.50;;;;;;;7.71;76.67;100282.72;4234245;33;35188;-74
2022/10/05 04:37:42;;;;;;;0.40;0.40;;;;;;;7.22;79.67;100282.78;4221370;33;33741;-74
2022/10/05 04:40:44;;;;;;;0.50;0.50;;;;;;;7.60;79.29;100290.34;4221432;33;33195;-74
2022/10/05 04:43:21;;;;;;;0.50;0.50;;;;;;;7.25;80.37;100282.81;4233900;33;35161;-74
2022/10/05 04:45:49;;;;;;;0.50;0.50;;;;;;;7.48;77.94;100284.94;4233945;33;35201;-74
2022/10/05 04:48:43;;;;;;;0.50;0.50;;;;;;;7.55;78.88;100289.38;4234135;33;33463;-74
2022/10/05 04:51:33;;;;;;;0.50;0.50;;;;;;;7.25;80.31;100284.53;4221517;33;33648;-74
2022/10/05 04:54:01;;;;;;;0.70;0.70;;;;;;;7.37;81.58;100301.16;4221377;33;35233;-74
2022/10/05 04:56:36;;;;;;;0.50;0.50;;;;;;;7.55;79.66;100294.56;4233754;33;35090;-74
2022/10/05 04:59:23;;;;;;;0.50;0.50;;;;;;;7.69;78.01;100292.22;4221385;33;33308;-74
2022/10/05 05:02:45;;;;;;;0.73;0.73;;;;;;;7.64;77.26;100283.47;4220709;33;34628;-74
2022/10/05 05:05:14;;;;;;;0.50;0.50;;;;;;;7.33;79.75;100289.03;4204035;34;34873;-74
2022/10/05 05:08:03;;;;;;;0.40;0.40;;;;;;;7.61;79.39;100297.28;4227204;33;35125;-74
2022/10/05 05:10:38;;;;;;;0.55;0.55;;;;;;;7.82;77.40;100299.34;4221196;33;33520;-74
2022/10/05 05:13:20;;;;;;;1.95;1.35;;;;;;;7.79;76.38;100291.50;4220963;33;32327;-74
2022/10/05 05:16:11;;;;;;;0.50;0.50;;;;;;;7.53;77.78;100288.50;4221229;33;35893;-74
2022/10/05 05:18:57;;;;;;;0.60;0.60;;;;;;;7.77;77.61;100286.31;4228854;33;34610;-74
2022/10/05 05:21:37;;;;;;;0.60;0.60;;;;;;;7.86;77.09;100280.38;4233992;33;33629;-74
2022/10/05 05:24:17;;;;;;;0.50;0.50;;;;;;;7.97;75.92;100285.72;4221083;33;33361;-74
2022/10/05 05:26:54;;;;;;;0.50;0.50;;;;;;;7.28;81.11;100288.06;4233847;33;34961;-74
2022/10/05 05:29:33;;;;;;;0.60;0.60;;;;;;;7.41;84.16;100289.13;4233935;33;35176;-74
2022/10/05 05:32:23;;;;;;;0.55;0.55;;;;;;;7.50;84.59;100284.16;4221161;33;32794;-74
2022/10/05 05:35:29;;;;;;;0.50;0.50;;;;;;;8.21;81.23;100286.97;4220913;33;32380;-74
2022/10/05 05:38:22;;;;;;;0.47;0.47;;;;;;;8.47;85.89;100298.59;4195270;33;35182;-74
2022/10/05 05:41:11;;;;;;;0.62;0.62;;;;;;;9.51;81.72;100303.19;4233587;33;35256;-74
2022/10/05 05:43:52;;;;;;;0.40;0.40;;;;;;;10.78;75.77;100305.81;4233980;33;33564;-74
2022/10/05 05:46:33;;;;;;;0.40;0.40;;;;;;;11.16;73.27;100299.81;4233607;33;34083;-74
2022/10/05 05:49:26;;;;;;;0.50;0.50;;;;;;;11.29;72.13;100307.66;4223441;33;34869;-74
2022/10/05 05:51:58;;;;;;;0.40;0.40;;;;;;;11.54;70.24;100313.78;4232646;33;34506;-74
2022/10/05 05:54:34;;;;;;;0.50;0.50;;;;;;;11.89;70.38;100315.53;4221102;33;34263;-74
2022/10/05 05:57:09;;;;;;;0.40;0.40;;;;;;;12.49;71.09;100318.09;4221146;33;34085;-74
2022/10/05 05:59:57;;;;;;;0.40;0.40;;;;;;;12.72;69.20;100328.44;4221265;33;35203;-74
2022/10/05 06:02:46;;;;;;;0.45;0.45;;;;;;;12.93;66.87;100330.12;4233714;33;35267;-74
2022/10/05 06:05:15;;;;;;;0.40;0.40;;;;;;;13.18;66.03;100332.59;4233506;33;34344;-74
2022/10/05 06:07:43;;;;;;;1.20;1.10;;;;;;;13.56;65.88;100337.62;4233641;33;34070;-74
2022/10/05 06:10:36;;;;;;;0.40;0.40;;;;;;;13.83;65.18;100335.69;4220960;33;35776;-74
2022/10/05 06:13:10;;;;;;;1.48;1.37;;;;;;;14.20;64.59;100344.09;4233565;33;34564;-74
2022/10/05 06:15:48;;;;;;;0.40;0.40;;;;;;;14.27;63.88;100346.66;4233686;33;34416;-74
2022/10/05 06:18:18;;;;;;;0.57;0.57;;;;;;;13.80;65.49;100360.16;4233318;33;34113;-74
2022/10/05 06:20:56;;;;;;;2.53;0.93;;;;;;;13.98;66.18;100380.09;4221118;33;35239;-75
2022/10/05 06:23:47;;;;;;;0.60;0.60;;;;;;;14.48;61.47;100383.13;4233609;33;34840;-74
2022/10/05 06:26:38;;;;;;;0.70;0.70;;;;;;;13.59;65.80;100389.97;4220820;33;33451;-74
2022/10/05 06:29:11;;;;;;;0.70;0.70;;;;;;;13.55;66.82;100393.47;4233561;33;33985;-74
2022/10/05 06:32:01;;;;;;;0.43;0.43;;;;;;;13.93;66.50;100381.00;4220743;33;35114;-75
2022/10/05 06:34:29;;;;;;;0.88;0.82;;;;;;;14.76;60.59;100388.12;4220601;33;35344;-75
2022/10/05 06:37:00;;;;;;;1.10;1.00;;;;;;;14.02;64.98;100394.88;4233523;33;34298;-74
2022/10/05 06:40:03;;;;;;;0.65;0.65;;;;;;;13.94;66.17;100393.19;4220580;33;33174;-75
2022/10/05 06:42:55;;;;;;;0.70;0.70;;;;;;;13.88;66.24;100404.59;4217622;33;35114;-75
2022/10/05 06:45:37;;;;;;;0.60;0.60;;;;;;;14.19;65.14;100407.84;4233134;33;35273;-75
2022/10/05 06:48:38;;;;;;;0.40;0.40;;;;;;;14.19;64.60;100401.75;4233385;33;34420;-75
2022/10/05 06:51:33;;;;;;;1.15;1.08;;;;;;;14.08;66.06;100398.34;4233358;33;34918;-75
2022/10/05 06:54:13;;;;;;;0.45;0.45;;;;;;;14.43;64.43;100408.50;4233322;33;35109;-75
2022/10/05 06:56:48;;;;;;;1.05;0.95;;;;;;;14.65;63.66;100406.59;4233319;33;35116;-75
2022/10/05 06:59:28;;;;;;;1.12;1.02;;;;;;;14.26;66.18;100418.28;4220386;33;34388;-75
2022/10/05 07:02:13;;;;;;;0.95;0.93;;;;;;;14.27;66.13;100410.41;4233107;33;34051;-75
2022/10/05 07:05:11;;;;;;;0.40;0.40;;;;;;;14.34;65.94;100419.94;4233222;33;35884;-75
2022/10/05 07:07:57;;;;;;;0.68;0.68;;;;;;;14.76;66.64;100424.81;4220336;33;34204;-75
2022/10/05 07:11:07;;;;;;;0.50;0.50;;;;;;;15.91;61.19;100425.12;4220582;33;34436;-75
2022/10/05 07:13:46;;;;;;;3.28;0.88;;;;;;;15.51;62.84;100425.66;4209348;33;33674;-75
2022/10/05 07:16:27;;;;;;;0.40;0.40;;;;;;;15.61;61.69;100424.66;4208577;33;33614;-75
2022/10/05 07:19:06;;;;;;;0.85;0.85;;;;;;;15.71;63.63;100423.63;4233052;33;34387;-75
2022/10/05 07:22:12;;;;;;;0.47;0.47;;;;;;;16.28;60.89;100427.19;4232705;33;33389;-75
2022/10/05 07:24:43;;;;;;;0.55;0.55;;;;;;;16.72;59.40;100425.53;4233749;33;33848;-75
2022/10/05 07:27:14;;;;;;;0.30;0.30;;;;;;;16.60;60.30;100412.59;4234654;33;35768;-75
2022/10/05 07:30:18;;;;;;;0.70;0.70;;;;;;;17.19;58.55;100409.75;4234640;33;34434;-75
2022/10/05 07:33:00;;;;;;;0.40;0.40;;;;;;;16.90;61.57;100408.53;4225486;33;33445;-75
2022/10/05 07:38:44;;;;;;;0.35;0.35;;;;;;;18.56;56.53;100425.00;4234473;33;35880;-75
2022/10/05 07:41:18;;;;;;;0.30;0.30;;;;;;;18.00;58.59;100423.75;4221969;33;35087;-75
2022/10/05 07:44:01;;;;;;;0.55;0.55;;;;;;;18.71;56.23;100419.31;4221986;33;32986;-75
2022/10/05 07:46:30;;;;;;;0.77;0.77;;;;;;;18.82;57.26;100423.47;4221996;33;34043;-75
2022/10/05 07:49:21;;;;;;;0.68;0.68;;;;;;;19.48;54.29;100417.16;4234284;33;35059;-75
2022/10/05 07:51:52;;;;;;;1.45;1.35;;;;;;;19.04;56.59;100421.97;4234156;33;34467;-75
2022/10/05 07:54:24;;;;;;;1.02;1.02;;;;;;;19.44;55.12;100415.50;4234565;33;32685;-75
2022/10/05 07:57:10;;;;;;;1.50;1.40;;;;;;;19.77;54.98;100415.41;4221720;33;33922;-75
2022/10/05 07:59:57;;;;;;;0.30;0.30;;;;;;;19.97;55.35;100419.19;4234223;33;35015;-75
2022/10/05 08:02:32;;;;;;;;;;;;;;;20.38;52.63;100424.88;4222062;33;34240;-75
2022/10/05 08:05:22;;;;;;;1.83;1.73;;;;;;;20.66;51.56;100422.19;4221733;33;33477;-76
2022/10/05 08:07:54;;;;;;;2.28;2.03;;;;;;;20.91;50.14;100430.16;4234255;33;34133;-75
2022/10/05 08:10:48;;;;;;;0.93;0.93;;;;;;;21.32;49.59;100430.41;4221632;33;35874;-75
2022/10/05 08:13:28;;;;;;;0.52;0.52;;;;;;;20.99;50.29;100422.78;4210009;33;33693;-75
2022/10/05 08:16:00;;;;;;;0.93;0.90;;;;;;;21.20;49.23;100425.56;4234146;33;34398;-75
2022/10/05 08:18:47;;;;;;;0.70;0.70;;;;;;;21.67;48.83;100432.63;4210104;33;33830;-75
2022/10/05 08:21:20;;;;;;;1.48;1.37;;;;;;;21.87;46.65;100429.22;4234078;33;35006;-76
2022/10/05 08:23:56;;;;;;;0.88;0.88;;;;;;;22.19;44.06;100427.88;4221439;33;34406;-76
2022/10/05 08:26:44;;;;;;;0.50;0.50;;;;;;;22.13;46.08;100426.34;4234095;33;33578;-76
2022/10/05 08:29:23;;;;;;;0.77;0.77;;;;;;;22.27;43.46;100424.94;4221470;33;33898;-76
2022/10/05 08:31:57;;;;;;;1.70;1.55;;;;;;;21.86;44.53;100420.37;4233999;33;34963;-76
2022/10/05 08:34:48;;;;;;;1.02;0.98;;;;;;;21.33;44.09;100416.19;4221080;33;34552;-76
2022/10/05 08:37:23;;;;;;;7.65;2.08;;;;;;;21.65;44.11;100415.91;4221406;33;33374;-76
2022/10/05 08:39:55;;;;;;;0.98;0.82;;;;;;;21.69;44.88;100413.09;4233874;33;33957;-76
2022/10/05 08:42:51;;;;;;;1.12;1.02;;;;;;;20.35;46.59;100401.22;4234043;33;35056;-76
2022/10/05 08:46:01;;;;;;;1.25;0.65;;;;;;;21.27;44.45;100405.84;4233920;33;35110;-75
2022/10/05 08:48:35;;;;;;;0.47;0.47;;;;;;;21.69;44.35;100410.44;4189994;34;34190;-76
2022/10/05 08:51:25;;;;;;;0.85;0.85;;;;;;;20.14;46.84;100401.00;4226729;33;33581;-76
2022/10/05 08:54:24;;;;;;;0.70;0.70;;;;;;;19.28;48.62;100387.84;4233912;33;35816;-76
2022/10/05 08:56:55;;;;;;;0.50;0.50;;;;;;;19.03;50.05;100393.81;4221198;33;34463;-76
2022/10/05 08:59:23;;;;;;;0.43;0.43;;;;;;;18.84;50.27;100393.47;4233799;33;34335;-76
2022/10/05 09:01:57;;;;;;;0.50;0.50;;;;;;;18.46;51.42;100391.84;4233767;33;34847;-76
2022/10/05 09:04:35;;;;;;;0.60;0.60;;;;;;;18.57;51.74;100398.56;4233795;33;35791;-76
2022/10/05 09:07:13;;;;;;;1.20;0.98;;;;;;;19.44;50.83;100394.38;4233777;33;34469;-76
2022/10/05 09:10:09;;;;;;;6.03;0.93;;;;;;;19.40;50.51;100398.03;4233724;33;34294;-75
2022/10/05 09:12:46;;;;;;;2.53;1.48;;;;;;;20.04;48.66;100402.22;4233702;33;34807;-75
2022/10/05 09:15:44;;;;;;;2.92;1.12;;;;;;;20.26;48.31;100411.19;4233694;33;35097;-76
2022/10/05 09:18:37;;;;;;;2.00;1.02;;;;;;;20.61;46.83;100421.44;4233711;33;34327;-75
2022/10/05 09:21:17;;;;;;;2.58;1.27;;;;;;;21.71;47.23;100421.00;4233735;33;34301;-75
2022/10/05 09:23:48;;;;;;;0.68;0.52;;;;;;;21.80;44.95;100419.78;4233705;33;33970;-76
2022/10/05 09:26:51;;;;;;;0.95;0.90;;;;;;;22.27;44.02;100430.22;4221260;33;35991;-76
2022/10/05 09:29:37;;;;;;;1.23;1.05;;;;;;;22.20;43.30;100428.72;4233681;33;34531;-76
2022/10/05 09:32:07;;;;;;;0.75;0.73;;;;;;;21.65;44.52;100431.81;4233732;33;33692;-76
2022/10/05 09:35:03;;;;;;;1.15;1.08;;;;;;;22.16;45.03;100433.31;4233654;33;34126;-76
2022/10/05 09:38:10;;;;;;;1.05;0.85;;;;;;;22.37;42.54;100426.28;4233663;33;35183;-76
2022/10/05 09:40:56;;;;;;;0.40;0.40;;;;;;;22.64;44.70;100433.97;4189559;34;34511;-76
2022/10/05 09:43:39;;;;;;;0.40;0.40;;;;;;;22.40;43.85;100438.56;4230862;33;34394;-76
2022/10/05 09:46:21;;;;;;;2.72;1.52;;;;;;;22.21;40.62;100435.78;4233129;33;33995;-75
2022/10/05 09:48:56;;;;;;;2.15;1.77;;;;;;;22.41;41.87;100438.47;4221110;33;35207;-76
2022/10/05 09:51:46;;;;;;;0.85;0.85;;;;;;;22.59;42.08;100435.97;4233596;33;34567;-76
2022/10/05 09:54:42;;;;;;;1.48;1.37;;;;;;;22.21;43.76;100425.16;4233599;33;34483;-76
2022/10/05 09:57:19;;;;;;;3.37;0.80;;;;;;;21.36;44.61;100421.41;4220939;33;33773;-76
2022/10/05 10:00:09;;;;;;;1.15;1.08;;;;;;;21.07;46.75;100411.03;4233422;33;35077;-75
2022/10/05 10:03:18;;;;;;;0.50;0.50;;;;;;;20.66;46.55;100413.41;4233518;33;34651;-76
2022/10/05 10:05:56;;;;;;;1.83;1.58;;;;;;;20.13;47.88;100417.78;4220862;33;34238;-76
2022/10/05 10:08:35;;;;;;;1.67;1.52;;;;;;;20.08;47.85;100432.94;4220593;33;33966;-76
2022/10/05 10:11:06;;;;;;;1.10;1.00;;;;;;;19.85;48.42;100420.44;4220879;33;35069;-76
2022/10/05 10:13:52;;;;;;;7.07;1.05;;;;;;;20.77;47.99;100416.50;4233532;33;34313;-76
2022/10/05 10:16:45;;;;;;;0.40;0.40;;;;;;;20.66;45.84;100408.97;4221020;33;34141;-76
2022/10/05 10:19:25;;;;;;;0.37;0.37;;;;;;;21.47;44.88;100415.72;4233546;33;33985;-76
2022/10/05 10:22:21;;;;;;;0.45;0.45;;;;;;;22.50;41.60;100422.19;4233381;33;35892;-76
2022/10/05 10:25:30;;;;;;;0.52;0.40;;;;;;;21.82;43.83;100424.06;4233376;33;34549;-76
2022/10/05 10:28:18;;;;;;;0.88;0.88;;;;;;;21.63;45.37;100418.62;4209763;33;33320;-75
2022/10/05 10:31:14;;;;;;;1.95;1.77;;;;;;;21.42;43.93;100414.13;4220770;33;33990;-76
2022/10/05 10:34:00;;;;;;;0.73;0.50;;;;;;;22.10;44.18;100423.81;4233307;33;35070;-76
2022/10/05 10:36:55;;;;;;;0.47;0.47;;;;;;;21.78;43.79;100423.34;4233267;33;34351;-76
2022/10/05 10:39:26;;;;;;;0.40;0.40;;;;;;;22.26;43.50;100417.88;4233164;33;34373;-76
2022/10/05 10:42:32;;;;;;;1.27;0.73;;;;;;;22.19;45.31;100419.06;4220702;33;33327;-75
2022/10/05 10:45:03;;;;;;;2.22;2.03;;;;;;;21.30;45.07;100431.34;4233164;33;33949;-76
2022/10/05 10:47:51;;;;;;;2.70;0.90;;;;;;;21.34;45.54;100428.53;4233028;33;35258;-76
2022/10/05 10:50:49;;;;;;;0.50;0.50;;;;;;;21.85;45.37;100423.97;4220741;33;33750;-76
2022/10/05 10:53:56;;;;;;;1.08;1.00;;;;;;;22.31;45.98;100429.19;4220584;33;34186;-76
2022/10/05 10:56:47;;;;;;;0.62;0.62;;;;;;;22.60;43.23;100421.78;4232988;33;36106;-76
2022/10/05 10:59:50;;;;;;;1.45;0.90;;;;;;;22.74;43.92;100422.03;4231998;33;34429;-76
2022/10/05 11:02:51;;;;;;;0.77;0.77;;;;;;;23.10;44.05;100413.37;4232835;33;34305;-76
2022/10/05 11:05:48;;;;;;;0.50;0.50;;;;;;;23.14;43.46;100409.66;4233122;33;33870;-76
2022/10/05 11:08:37;;;;;;;0.52;0.52;;;;;;;23.35;41.34;100405.16;4230874;33;36026;-76
2022/10/05 11:11:22;;;;;;;0.95;0.95;;;;;;;21.81;44.15;100417.03;4220261;33;34489;-76
2022/10/05 11:14:27;;;;;;;1.40;1.30;;;;;;;22.11;44.32;100414.06;4232877;33;33449;-76
2022/10/05 11:17:18;;;;;;;0.82;0.80;;;;;;;22.93;43.89;100405.31;4220095;33;34023;-76
2022/10/05 11:20:19;;;;;;;0.37;0.37;;;;;;;23.77;41.09;100405.81;4220055;33;35999;-76
2022/10/05 11:23:11;;;;;;;0.80;0.70;;;;;;;23.83;41.59;100397.59;4220349;33;34400;-76
2022/10/05 11:26:16;;;;;;;0.90;0.88;;;;;;;23.98;42.90;100398.62;4232744;33;33243;-76
2022/10/05 11:28:50;;;;;;;3.12;1.35;;;;;;;24.49;39.08;100404.91;4232562;33;34102;-76
2022/10/05 11:31:29;;;;;;;1.00;0.50;;;;;;;24.23;38.93;100396.47;4232622;33;35241;-76
2022/10/05 11:34:05;;;;;;;0.73;0.73;;;;;;;24.06;41.09;100400.91;4220031;33;35376;-76
2022/10/05 11:36:53;;;;;;;;;;;;;;;24.57;37.72;100388.59;4232899;33;33415;-76
2022/10/05 11:39:42;;;;;;;0.28;0.28;;;;;;;23.54;40.89;100383.00;4232546;33;34378;-76
2022/10/05 11:42:37;;;;;;;0.28;0.28;;;;;;;23.80;38.65;100384.41;4232424;33;35972;-76
2022/10/05 11:45:23;;;;;;;0.45;0.45;;;;;;;23.28;41.09;100380.66;4232277;33;35039;-76
2022/10/05 11:47:55;;;;;;;;;;;;;;;22.91;41.06;100373.50;4220278;33;33938;-77
2022/10/05 11:50:37;;;;;;;0.50;0.50;;;;;;;22.74;38.92;100370.72;4232426;33;34309;-76
2022/10/05 11:53:12;;;;;;;0.10;0.10;;;;;;;22.14;41.66;100374.16;4232222;33;35131;-76
2022/10/05 11:56:03;;;;;;;1.62;1.52;;;;;;;21.89;42.56;100366.34;4232287;33;34441;-76
2022/10/05 11:58:38;;;;;;;0.32;0.32;;;;;;;22.69;40.30;100368.28;4232346;33;33531;-76
2022/10/05 12:01:29;;;;;;;1.55;1.45;;;;;;;22.56;41.33;100372.41;4208232;33;33953;-76
2022/10/05 12:04:23;;;;;;;0.57;0.47;;;;;;;22.12;41.65;100362.75;4219728;33;34898;-77
2022/10/05 12:07:10;;;;;;;0.17;0.17;;;;;;;21.26;42.63;100361.72;4230634;33;35145;-76
2022/10/05 12:10:20;;;;;;;0.75;0.75;;;;;;;22.15;40.31;100354.66;4232504;33;33473;-76
2022/10/05 12:13:05;;;;;;;0.52;0.50;;;;;;;22.15;38.55;100347.56;4234115;33;33835;-76
2022/10/05 12:15:40;;;;;;;0.50;0.50;;;;;;;22.75;38.44;100351.19;4221584;33;35058;-76
2022/10/05 12:18:31;;;;;;;0.20;0.20;;;;;;;22.52;39.10;100351.31;4221515;33;35227;-76
2022/10/05 12:21:26;;;;;;;1.37;1.27;;;;;;;22.32;40.93;100356.59;4234344;33;33120;-76
2022/10/05 12:24:08;;;;;;;0.65;0.22;;;;;;;21.91;39.67;100357.41;4221788;33;34012;-76
2022/10/05 12:26:44;;;;;;;0.52;0.45;;;;;;;21.42;40.11;100350.53;4234073;33;35067;-76
2022/10/05 12:29:20;;;;;;;0.37;0.37;;;;;;;21.43;42.23;100346.97;4221759;33;34205;-76
2022/10/05 12:31:59;;;;;;;0.30;0.30;;;;;;;20.74;42.98;100348.69;4234026;33;33584;-76
2022/10/05 12:34:37;;;;;;;0.10;0.10;;;;;;;21.23;41.22;100345.09;4221461;33;34805;-76
2022/10/05 12:37:27;;;;;;;0.25;0.25;;;;;;;21.28;43.85;100346.63;4233987;33;35056;-76
2022/10/05 12:40:12;;;;;;;0.20;0.20;;;;;;;21.97;41.37;100343.00;4233965;33;34306;-76
2022/10/05 12:43:03;;;;;;;0.40;0.40;;;;;;;21.39;42.70;100343.59;4234042;33;34572;-76
2022/10/05 12:45:38;;;;;;;0.47;0.47;;;;;;;21.21;41.36;100331.91;4221412;33;34765;-76
2022/10/05 12:48:32;;;;;;;0.40;0.40;;;;;;;22.06;41.41;100332.03;4221447;33;35031;-76